createdAt,value
2023-01-19T00:02:21.192Z,99511.56
2023-01-19T00:04:53.409Z,99496.05
2023-01-19T00:07:25.638Z,99500.37
2023-01-19T00:09:57.962Z,99502.84
2023-01-19T00:12:30.317Z,99495.22
2023-01-19T00:15:02.533Z,99494.39
2023-01-19T00:17:34.983Z,99501.34
2023-01-19T00:20:07.973Z,99492.63
2023-01-19T00:22:40.031Z,99488.34
2023-01-19T00:25:13.184Z,99496.95
2023-01-19T00:27:47.099Z,99483.92
2023-01-19T00:30:19.501Z,99492.59
2023-01-19T00:32:51.660Z,99470.97
2023-01-19T00:35:24.424Z,99472.69
2023-01-19T00:37:57.981Z,99484.71
2023-01-19T00:40:29.993Z,99486.47
2023-01-19T00:43:03.676Z,99488.23
2023-01-19T00:45:36.173Z,99483.99
2023-01-19T00:48:08.199Z,99493.49
2023-01-19T00:50:40.403Z,99475.17
2023-01-19T00:53:12.738Z,99482.87
2023-01-19T00:55:45.042Z,99483.02
2023-01-19T00:58:17.137Z,99481.22
2023-01-19T01:00:49.371Z,99471.72
2023-01-19T01:03:23.068Z,99460.34
2023-01-19T01:05:55.007Z,99473.38
2023-01-19T01:08:27.360Z,99465.52
2023-01-19T01:10:59.596Z,99468.16
2023-01-19T01:13:32.001Z,99469.88
2023-01-19T01:16:04.468Z,99463.91
2023-01-19T01:18:36.674Z,99456.89
2023-01-19T01:21:09.464Z,99466.39
2023-01-19T01:23:41.566Z,99453.44
2023-01-19T01:26:13.801Z,99448.25
2023-01-19T01:28:46.437Z,99468.72
2023-01-19T01:31:18.753Z,99461.13
2023-01-19T01:33:51.128Z,99463.69
2023-01-19T01:36:23.400Z,99451.63
2023-01-19T01:38:55.549Z,99469.66
2023-01-19T01:41:27.912Z,99492.95
2023-01-19T01:44:02.228Z,99458.36
2023-01-19T01:46:34.228Z,99476.68
2023-01-19T01:49:14.975Z,99468.83
2023-01-19T01:51:50.220Z,99470.70
2023-01-19T01:54:28.150Z,99474.09
2023-01-19T01:57:03.738Z,99483.59
2023-01-19T01:59:39.515Z,99463.72
2023-01-19T02:02:40.738Z,99474.84
2023-01-19T02:05:15.571Z,99470.59
2023-01-19T02:08:10.792Z,99456.77
2023-01-19T02:11:01.488Z,99471.50
2023-01-19T02:13:36.387Z,99460.48
2023-01-19T02:16:10.099Z,99495.08
2023-01-19T02:18:43.365Z,99452.78
2023-01-19T02:21:35.424Z,99458.88
2023-01-19T02:24:09.050Z,99449.41
2023-01-19T02:26:47.226Z,99452.78
2023-01-19T02:29:25.749Z,99459.70
2023-01-19T02:31:59.409Z,99459.63
2023-01-19T02:34:32.353Z,99466.39
2023-01-19T02:37:07.217Z,99449.97
2023-01-19T02:39:49.801Z,99453.44
2023-01-19T02:42:30.550Z,99441.34
2023-01-19T02:45:05.554Z,99440.62
2023-01-19T02:47:52.742Z,99445.88
2023-01-19T02:50:47.624Z,99458.11
2023-01-19T02:53:32.570Z,99461.67
2023-01-19T02:56:23.875Z,99460.48
2023-01-19T02:59:10.981Z,99450.45
2023-01-19T03:01:54.996Z,99442.67
2023-01-19T03:04:33.617Z,99450.20
2023-01-19T03:07:14.255Z,99462.33
2023-01-19T03:09:49.446Z,99456.24
2023-01-19T03:12:30.492Z,99445.88
2023-01-19T03:15:05.646Z,99471.75
2023-01-19T03:17:39.488Z,99452.68
2023-01-19T03:20:13.815Z,99456.17
2023-01-19T03:22:47.195Z,99459.48
2023-01-19T03:25:21.622Z,99459.55
2023-01-19T03:27:57.019Z,99472.47
2023-01-19T03:30:32.351Z,99461.35
2023-01-19T03:33:08.073Z,99476.03
2023-01-19T03:35:43.629Z,99491.59
2023-01-19T03:38:19.175Z,99510.55
2023-01-19T03:40:53.713Z,99503.64
2023-01-19T03:43:28.972Z,99502.84
2023-01-19T03:46:02.378Z,99496.77
2023-01-19T03:48:35.029Z,99515.67
2023-01-19T03:51:09.878Z,99480.32
2023-01-19T03:53:43.238Z,99509.52
2023-01-19T03:56:21.240Z,99500.95
2023-01-19T03:58:56.123Z,99507.86
2023-01-19T04:01:27.401Z,99494.11
2023-01-19T04:03:59.287Z,99496.38
2023-01-19T04:06:32.179Z,99506.89
2023-01-19T04:09:05.069Z,99521.71
2023-01-19T04:11:37.620Z,99531.87
2023-01-19T04:14:09.652Z,99532.91
2023-01-19T04:16:42.477Z,99537.20
2023-01-19T04:19:14.659Z,99550.22
2023-01-19T04:21:51.519Z,99549.25
2023-01-19T04:24:24.645Z,99546.66
2023-01-19T04:26:57.610Z,99535.39
2023-01-19T04:29:29.694Z,99535.91
2023-01-19T04:32:02.069Z,99543.03
2023-01-19T04:34:34.587Z,99540.44
2023-01-19T04:37:08.610Z,99554.20
2023-01-19T04:39:41.253Z,99547.31
2023-01-19T04:42:14.126Z,99542.92
2023-01-19T04:44:46.967Z,99540.30
2023-01-19T04:47:19.252Z,99552.33
2023-01-19T04:49:52.718Z,99562.55
2023-01-19T04:52:30.875Z,99551.31
2023-01-19T04:55:05.667Z,99558.09
2023-01-19T04:57:38.690Z,99564.09
2023-01-19T05:00:12.178Z,99565.75
2023-01-19T05:02:45.464Z,99564.81
2023-01-19T05:05:18.739Z,99574.14
2023-01-19T05:07:51.454Z,99563.88
2023-01-19T05:10:24.188Z,99575.80
2023-01-19T05:12:56.732Z,99573.17
2023-01-19T05:15:30.215Z,99576.59
2023-01-19T05:18:03.717Z,99574.83
2023-01-19T05:20:36.459Z,99588.63
2023-01-19T05:23:09.512Z,99600.62
2023-01-19T05:25:43.691Z,99611.83
2023-01-19T05:28:16.871Z,99609.23
2023-01-19T05:30:50.791Z,99608.36
2023-01-19T05:33:24.937Z,99596.15
2023-01-19T05:35:58.293Z,99604.69
2023-01-19T05:38:35.417Z,99619.35
2023-01-19T05:41:07.864Z,99611.56
2023-01-19T05:43:40.416Z,99603.70
2023-01-19T05:46:12.807Z,99608.03
2023-01-19T05:48:45.363Z,99614.09
2023-01-19T05:51:17.514Z,99618.34
2023-01-19T05:53:49.659Z,99618.23
2023-01-19T05:56:22.189Z,99625.91
2023-01-19T05:58:54.731Z,99631.02
2023-01-19T06:01:28.275Z,99624.92
2023-01-19T06:04:01.474Z,99631.77
2023-01-19T06:06:35.477Z,99649.04
2023-01-19T06:09:09.573Z,99661.98
2023-01-19T06:11:41.945Z,99637.64
2023-01-19T06:14:14.448Z,99647.98
2023-01-19T06:16:47.167Z,99654.80
2023-01-19T06:19:20.699Z,99654.75
2023-01-19T06:21:53.277Z,99649.48
2023-01-19T06:24:25.747Z,99662.31
2023-01-19T06:26:58.370Z,99681.28
2023-01-19T06:29:31.621Z,99693.32
2023-01-19T06:32:04.675Z,99691.55
2023-01-19T06:34:37.198Z,99694.91
2023-01-19T06:37:11.099Z,99680.08
2023-01-19T06:39:45.296Z,99692.08
2023-01-19T06:42:18.253Z,99685.94
2023-01-19T06:44:50.988Z,99676.30
2023-01-19T06:47:23.342Z,99667.60
2023-01-19T06:49:56.121Z,99677.09
2023-01-19T06:52:29.163Z,99668.35
2023-01-19T06:55:01.509Z,99676.11
2023-01-19T06:57:34.407Z,99683.78
2023-01-19T07:00:09.536Z,99668.98
2023-01-19T07:02:46.036Z,99681.81
2023-01-19T07:05:20.079Z,99687.91
2023-01-19T07:07:58.307Z,99687.91
2023-01-19T07:11:26.172Z,99700.00
2023-01-19T07:13:06.553Z,99684.38
2023-01-19T07:15:39.003Z,99696.37
2023-01-19T07:18:11.967Z,99693.70
2023-01-19T07:20:46.276Z,99696.25
2023-01-19T07:23:19.478Z,99683.17
2023-01-19T07:25:51.584Z,99683.97
2023-01-19T07:28:23.724Z,99695.19
2023-01-19T07:30:57.308Z,99695.03
2023-01-19T07:33:30.000Z,99694.91
2023-01-19T07:36:02.306Z,99694.78
2023-01-19T07:38:35.158Z,99703.53
2023-01-19T07:41:10.520Z,99729.44
2023-01-19T07:43:42.990Z,99740.55
2023-01-19T07:46:15.469Z,99742.31
2023-01-19T07:48:48.265Z,99742.20
2023-01-19T07:51:21.411Z,99751.81
2023-01-19T07:53:54.157Z,99763.86
2023-01-19T07:56:28.030Z,99754.33
2023-01-19T07:59:00.253Z,99744.67
2023-01-19T08:01:34.050Z,99745.53
2023-01-19T08:04:06.904Z,99740.22
2023-01-19T08:06:41.179Z,99745.30
2023-01-19T08:09:13.375Z,99756.56
2023-01-19T08:11:46.151Z,99769.45
2023-01-19T08:14:20.337Z,99765.06
2023-01-19T08:16:53.426Z,99774.48
2023-01-19T08:19:26.736Z,99771.84
2023-01-19T08:22:00.687Z,99772.58
2023-01-19T08:24:34.146Z,99794.25
2023-01-19T08:27:07.659Z,99804.66
2023-01-19T08:29:44.327Z,99808.91
2023-01-19T08:32:18.401Z,99801.11
2023-01-19T08:34:52.652Z,99812.30
2023-01-19T08:37:27.662Z,99814.03
2023-01-19T08:40:00.629Z,99806.06
2023-01-19T08:42:34.011Z,99807.77
2023-01-19T08:45:08.069Z,99812.88
2023-01-19T08:47:40.908Z,99808.38
2023-01-19T08:50:14.032Z,99811.64
2023-01-19T08:52:47.805Z,99808.95
2023-01-19T08:55:20.188Z,99814.20
2023-01-19T08:57:58.715Z,99809.78
2023-01-19T09:00:37.617Z,99809.00
2023-01-19T09:03:12.291Z,99802.06
2023-01-19T09:05:44.873Z,99795.11
2023-01-19T09:08:19.202Z,99792.59
2023-01-19T09:10:54.207Z,99796.03
2023-01-19T09:13:26.980Z,99790.83
2023-01-19T09:15:59.848Z,99785.63
2023-01-19T09:18:32.243Z,99788.18
2023-01-19T09:21:05.613Z,99783.84
2023-01-19T09:23:39.262Z,99789.00
2023-01-19T09:26:12.363Z,99781.08
2023-01-19T09:28:44.554Z,99772.27
2023-01-19T09:31:17.860Z,99767.14
2023-01-19T09:33:50.459Z,99761.12
2023-01-19T09:36:23.442Z,99762.81
2023-01-19T09:38:55.474Z,99766.23
2023-01-19T09:41:28.609Z,99767.14
2023-01-19T09:44:02.156Z,99761.03
2023-01-19T09:46:42.381Z,99757.52
2023-01-19T09:49:18.436Z,99764.41
2023-01-19T09:51:52.429Z,99770.44
2023-01-19T09:54:41.424Z,99776.55
2023-01-19T09:57:15.023Z,99785.19
2023-01-19T09:59:50.842Z,99806.02
2023-01-19T10:02:40.513Z,99795.65
2023-01-19T10:05:30.931Z,99779.20
2023-01-19T10:08:24.527Z,99776.55
2023-01-19T10:10:59.194Z,99790.36
2023-01-19T10:13:37.465Z,99772.95
2023-01-19T10:16:12.856Z,99769.44
2023-01-19T10:18:51.986Z,99785.11
2023-01-19T10:21:33.649Z,99789.56
2023-01-19T10:24:28.744Z,99796.47
2023-01-19T10:27:00.386Z,99794.00
2023-01-19T10:29:38.389Z,99792.61
2023-01-19T10:32:17.628Z,99786.10
2023-01-19T10:34:52.301Z,99767.23
2023-01-19T10:37:32.760Z,99772.44
2023-01-19T10:40:13.886Z,99766.41
2023-01-19T10:42:46.233Z,99778.64
2023-01-19T10:45:23.655Z,99782.02
2023-01-19T10:47:58.765Z,99782.02
2023-01-19T10:50:33.246Z,99794.16
2023-01-19T10:53:07.537Z,99799.25
2023-01-19T10:55:41.921Z,99802.76
2023-01-19T10:58:34.196Z,99797.64
2023-01-19T11:01:18.873Z,99797.64
2023-01-19T11:03:53.391Z,99804.58
2023-01-19T11:06:27.483Z,99793.34
2023-01-19T11:09:20.391Z,99785.80
2023-01-19T11:11:54.086Z,99789.70
2023-01-19T11:14:27.765Z,99791.48
2023-01-19T11:17:00.707Z,99801.97
2023-01-19T11:19:34.912Z,99808.91
2023-01-19T11:22:13.180Z,99816.02
2023-01-19T11:24:46.164Z,99827.38
2023-01-19T11:27:20.553Z,99810.98
2023-01-19T11:30:06.068Z,99815.41
2023-01-19T11:32:39.156Z,99812.84
2023-01-19T11:35:33.242Z,99819.78
2023-01-19T11:38:23.793Z,99823.25
2023-01-19T11:40:59.123Z,99828.69
2023-01-19T11:43:48.196Z,99833.16
2023-01-19T11:46:06.317Z,99831.50
2023-01-19T11:48:58.060Z,99845.45
2023-01-19T11:51:33.847Z,99841.20
2023-01-19T11:54:09.191Z,99824.80
2023-01-19T11:56:44.198Z,99832.69
2023-01-19T11:59:17.060Z,99826.66
2023-01-19T12:01:52.551Z,99830.98
2023-01-19T12:04:30.612Z,99832.72
2023-01-19T12:07:09.776Z,99836.11
2023-01-19T12:09:48.189Z,99843.98
2023-01-19T12:12:35.742Z,99854.52
2023-01-19T12:15:11.002Z,99851.05
2023-01-19T12:17:46.142Z,99861.56
2023-01-19T12:20:30.297Z,99885.08
2023-01-19T12:23:22.195Z,99879.01
2023-01-19T12:26:09.745Z,99873.92
2023-01-19T12:28:48.070Z,99882.59
2023-01-19T12:31:24.780Z,99879.20
2023-01-19T12:33:56.898Z,99890.53
2023-01-19T12:36:36.675Z,99889.63
2023-01-19T12:39:22.895Z,99887.07
2023-01-19T12:42:09.838Z,99883.57
2023-01-19T12:44:44.674Z,99889.67
2023-01-19T12:47:19.263Z,99886.17
2023-01-19T12:50:04.465Z,99895.14
2023-01-19T12:52:44.277Z,99901.55
2023-01-19T12:55:25.344Z,99894.83
2023-01-19T12:58:03.385Z,99886.28
2023-01-19T13:00:40.899Z,99890.69
2023-01-19T13:03:22.311Z,99882.89
2023-01-19T13:05:56.621Z,99876.89
2023-01-19T13:08:33.722Z,99870.72
2023-01-19T13:11:13.221Z,99878.55
2023-01-19T13:13:49.029Z,99889.06
2023-01-19T13:16:27.809Z,99876.14
2023-01-19T13:19:09.536Z,99878.77
2023-01-19T13:21:48.338Z,99878.81
2023-01-19T13:24:26.793Z,99887.59
2023-01-19T13:27:01.525Z,99876.36
2023-01-19T13:29:44.225Z,99881.59
2023-01-19T13:32:21.632Z,99890.33
2023-01-19T13:34:58.953Z,99886.75
2023-01-19T13:37:37.301Z,99879.13
2023-01-19T13:40:11.555Z,99877.51
2023-01-19T13:42:45.425Z,99881.08
2023-01-19T13:45:29.315Z,99888.95
2023-01-19T13:48:04.382Z,99893.34
2023-01-19T13:50:43.074Z,99882.98
2023-01-19T13:53:23.672Z,99868.34
2023-01-19T13:56:11.040Z,99862.28
2023-01-19T13:58:43.252Z,99874.33
2023-01-19T14:01:27.175Z,99895.02
2023-01-19T14:03:58.733Z,99911.43
2023-01-19T14:06:40.384Z,99921.92
2023-01-19T14:09:22.343Z,99922.06
2023-01-19T14:12:12.753Z,99922.16
2023-01-19T14:14:49.761Z,99928.26
2023-01-19T14:17:30.821Z,99932.59
2023-01-19T14:20:05.007Z,99935.16
2023-01-19T14:22:49.393Z,99941.08
2023-01-19T14:25:34.039Z,99938.65
2023-01-19T14:28:27.984Z,99939.14
2023-01-19T14:31:03.623Z,99930.13
2023-01-19T14:33:46.314Z,99920.67
2023-01-19T14:36:30.739Z,99940.64
2023-01-19T14:39:04.016Z,99944.14
2023-01-19T14:41:48.362Z,99944.14
2023-01-19T14:44:40.663Z,99934.62
2023-01-19T14:47:31.919Z,99931.22
2023-01-19T14:50:10.906Z,99928.69
2023-01-19T14:52:45.215Z,99953.79
2023-01-19T14:55:26.075Z,99968.48
2023-01-19T14:57:58.752Z,99969.34
2023-01-19T15:00:31.155Z,99963.41
2023-01-19T15:03:03.459Z,99940.97
2023-01-19T15:05:35.746Z,99917.56
2023-01-19T15:08:09.011Z,99910.55
2023-01-19T15:10:42.747Z,99918.36
2023-01-19T15:13:20.311Z,99922.66
2023-01-19T15:15:54.197Z,99908.02
2023-01-19T15:18:29.139Z,99915.83
2023-01-19T15:21:03.684Z,99936.61
2023-01-19T15:23:37.331Z,99937.44
2023-01-19T15:26:11.724Z,99943.44
2023-01-19T15:28:44.318Z,99948.73
2023-01-19T15:31:18.972Z,99942.63
2023-01-19T15:33:51.529Z,99945.97
2023-01-19T15:36:24.553Z,99946.99
2023-01-19T15:38:57.510Z,99943.66
2023-01-19T15:41:30.750Z,99943.69
2023-01-19T15:44:03.803Z,99936.80
2023-01-19T15:46:36.968Z,99935.09
2023-01-19T15:49:10.498Z,99924.75
2023-01-19T15:51:43.770Z,99923.53
2023-01-19T15:54:16.558Z,99920.42
2023-01-19T15:56:49.361Z,99914.39
2023-01-19T15:59:21.893Z,99906.61
2023-01-19T16:01:54.722Z,99894.62
2023-01-19T16:04:27.147Z,99890.39
2023-01-19T16:07:00.894Z,99890.30
2023-01-19T16:09:33.342Z,99891.25
2023-01-19T16:12:05.807Z,99894.78
2023-01-19T16:14:38.034Z,99890.39
2023-01-19T16:17:12.565Z,99881.64
2023-01-19T16:19:46.990Z,99876.67
2023-01-19T16:22:19.612Z,99869.78
2023-01-19T16:24:53.355Z,99873.28
2023-01-19T16:27:26.805Z,99863.89
2023-01-19T16:30:01.182Z,99852.64
2023-01-19T16:32:36.637Z,99850.95
2023-01-19T16:35:09.509Z,99847.45
2023-01-19T16:37:41.560Z,99843.09
2023-01-19T16:40:14.362Z,99855.14
2023-01-19T16:42:47.454Z,99863.89
2023-01-19T16:45:19.764Z,99866.52
2023-01-19T16:47:52.411Z,99876.16
2023-01-19T16:50:24.509Z,99872.70
2023-01-19T16:52:59.354Z,99873.47
2023-01-19T16:55:31.588Z,99863.19
2023-01-19T16:58:04.203Z,99844.25
2023-01-19T17:00:36.779Z,99841.75
2023-01-19T17:03:08.763Z,99851.27
2023-01-19T17:05:41.022Z,99859.02
2023-01-19T17:08:13.210Z,99860.43
2023-01-19T17:10:45.392Z,99857.13
2023-01-19T17:13:17.905Z,99861.61
2023-01-19T17:15:51.113Z,99863.16
2023-01-19T17:18:24.780Z,99851.30
2023-01-19T17:21:02.832Z,99854.78
2023-01-19T17:23:36.368Z,99850.40
2023-01-19T17:26:08.655Z,99854.78
2023-01-19T17:28:41.030Z,99856.42
2023-01-19T17:31:16.397Z,99854.78
2023-01-19T17:33:50.898Z,99864.33
2023-01-19T17:36:25.541Z,99857.44
2023-01-19T17:39:00.424Z,99849.63
2023-01-19T17:41:35.276Z,99856.55
2023-01-19T17:44:08.787Z,99864.33
2023-01-19T17:46:41.279Z,99849.69
2023-01-19T17:49:13.330Z,99866.03
2023-01-19T17:51:45.909Z,99873.01
2023-01-19T17:54:18.134Z,99856.55
2023-01-19T17:56:51.340Z,99857.44
2023-01-19T17:59:23.503Z,99857.44
2023-01-19T18:01:55.650Z,99863.56
2023-01-19T18:04:31.385Z,99857.56
2023-01-19T18:07:03.144Z,99851.48
2023-01-19T18:09:35.395Z,99867.81
2023-01-19T18:12:08.209Z,99858.37
2023-01-19T18:14:41.166Z,99861.83
2023-01-19T18:17:13.342Z,99863.44
2023-01-19T18:19:45.763Z,99858.19
2023-01-19T18:22:18.584Z,99850.55
2023-01-19T18:24:50.693Z,99846.27
2023-01-19T18:27:23.116Z,99844.53
2023-01-19T18:29:55.451Z,99849.72
2023-01-19T18:32:27.647Z,99841.05
2023-01-19T18:35:00.015Z,99844.47
2023-01-19T18:37:33.033Z,99838.52
2023-01-19T18:40:05.451Z,99825.51
2023-01-19T18:42:38.296Z,99831.53
2023-01-19T18:45:11.179Z,99822.95
2023-01-19T18:47:43.446Z,99827.27
2023-01-19T18:50:15.994Z,99815.20
2023-01-19T18:52:50.960Z,99816.89
2023-01-19T18:55:24.618Z,99820.45
2023-01-19T18:57:56.802Z,99822.20
2023-01-19T19:00:29.402Z,99817.73
2023-01-19T19:03:01.924Z,99824.58
2023-01-19T19:05:34.441Z,99816.89
2023-01-19T19:08:07.031Z,99813.50
2023-01-19T19:10:40.514Z,99810.91
2023-01-19T19:13:17.730Z,99814.33
2023-01-19T19:15:51.864Z,99814.33
2023-01-19T19:18:24.166Z,99813.21
2023-01-19T19:20:56.702Z,99818.66
2023-01-19T19:23:28.865Z,99835.17
2023-01-19T19:26:11.262Z,99819.58
2023-01-19T19:28:43.509Z,99829.06
2023-01-19T19:31:20.176Z,99821.25
2023-01-19T19:33:52.855Z,99833.33
2023-01-19T19:36:26.068Z,99829.80
2023-01-19T19:38:59.324Z,99832.30
2023-01-19T19:41:32.626Z,99827.95
2023-01-19T19:44:04.879Z,99836.59
2023-01-19T19:46:37.325Z,99836.62
2023-01-19T19:49:11.250Z,99827.05
2023-01-19T19:51:43.709Z,99833.16
2023-01-19T19:54:15.891Z,99828.01
2023-01-19T19:56:50.119Z,99828.84
2023-01-19T19:59:22.186Z,99825.38
2023-01-19T20:01:55.229Z,99826.22
2023-01-19T20:04:27.841Z,99832.20
2023-01-19T20:07:00.248Z,99825.35
2023-01-19T20:09:33.067Z,99842.61
2023-01-19T20:12:05.460Z,99836.56
2023-01-19T20:14:51.010Z,99830.48
2023-01-19T20:17:25.104Z,99821.80
2023-01-19T20:19:59.149Z,99818.30
2023-01-19T20:22:34.653Z,99818.30
2023-01-19T20:25:07.973Z,99809.55
2023-01-19T20:27:40.408Z,99804.44
2023-01-19T20:30:13.671Z,99798.34
2023-01-19T20:32:46.072Z,99778.52
2023-01-19T20:35:18.355Z,99784.44
2023-01-19T20:37:50.915Z,99784.41
2023-01-19T20:40:23.320Z,99800.81
2023-01-19T20:42:56.202Z,99799.18
2023-01-19T20:45:28.451Z,99793.16
2023-01-19T20:48:00.693Z,99798.31
2023-01-19T20:50:32.991Z,99791.19
2023-01-19T20:53:05.332Z,99785.41
2023-01-19T20:55:37.981Z,99799.11
2023-01-19T20:58:10.019Z,99794.85
2023-01-19T21:00:42.422Z,99800.88
2023-01-19T21:03:16.825Z,99798.34
2023-01-19T21:05:51.871Z,99806.93
2023-01-19T21:08:23.186Z,99799.71
2023-01-19T21:11:01.554Z,99818.61
2023-01-19T21:13:33.902Z,99804.23
2023-01-19T21:16:06.757Z,99783.55
2023-01-19T21:18:39.381Z,99794.82
2023-01-19T21:21:28.519Z,99788.73
2023-01-19T21:23:47.127Z,99788.73
2023-01-19T21:26:19.704Z,99785.23
2023-01-19T21:28:52.182Z,99791.27
2023-01-19T21:31:27.093Z,99797.25
2023-01-19T21:33:58.710Z,99800.67
2023-01-19T21:36:31.083Z,99801.47
2023-01-19T21:39:05.107Z,99800.61
2023-01-19T21:41:39.102Z,99801.44
2023-01-19T21:44:13.955Z,99805.70
2023-01-19T21:46:46.362Z,99793.55
2023-01-19T21:49:20.789Z,99794.28
2023-01-19T21:51:52.413Z,99794.31
2023-01-19T21:54:24.288Z,99791.38
2023-01-19T21:56:56.874Z,99789.81
2023-01-19T21:59:29.870Z,99793.34
2023-01-19T22:02:02.311Z,99789.81
2023-01-19T22:04:35.524Z,99792.52
2023-01-19T22:07:08.344Z,99783.73
2023-01-19T22:09:40.499Z,99782.00
2023-01-19T22:12:12.909Z,99779.44
2023-01-19T22:14:45.112Z,99783.83
2023-01-19T22:17:17.718Z,99781.23
2023-01-19T22:19:50.169Z,99775.14
2023-01-19T22:22:22.235Z,99781.13
2023-01-19T22:24:54.577Z,99784.55
2023-01-19T22:27:26.931Z,99772.37
2023-01-19T22:29:58.929Z,99774.79
2023-01-19T22:32:33.160Z,99771.33
2023-01-19T22:35:05.281Z,99757.59
2023-01-19T22:37:38.082Z,99770.50
2023-01-19T22:40:11.189Z,99764.44
2023-01-19T22:42:48.615Z,99766.14
2023-01-19T22:45:21.902Z,99770.42
2023-01-19T22:47:54.123Z,99777.24
2023-01-19T22:50:26.371Z,99771.19
2023-01-19T22:52:58.728Z,99772.88
2023-01-19T22:55:31.591Z,99796.11
2023-01-19T22:58:03.983Z,99779.73
2023-01-19T23:00:36.479Z,99794.38
2023-01-19T23:03:08.813Z,99785.65
2023-01-19T23:05:40.929Z,99790.80
2023-01-19T23:08:12.947Z,99788.14
2023-01-19T23:10:45.117Z,99787.16
2023-01-19T23:13:17.622Z,99788.78
2023-01-19T23:15:49.948Z,99786.98
2023-01-19T23:18:22.057Z,99793.04
2023-01-19T23:20:54.399Z,99792.17
2023-01-19T23:23:26.582Z,99792.03
2023-01-19T23:26:04.457Z,99792.03
2023-01-19T23:28:37.272Z,99798.92
2023-01-19T23:31:30.202Z,99790.94
2023-01-19T23:34:04.972Z,99793.61
2023-01-19T23:36:38.725Z,99792.63
2023-01-19T23:39:13.987Z,99791.77
2023-01-19T23:41:48.298Z,99789.13
2023-01-19T23:44:20.944Z,99794.33
2023-01-19T23:46:53.697Z,99789.95
2023-01-19T23:49:25.989Z,99788.86
2023-01-19T23:51:58.904Z,99802.80
2023-01-19T23:54:30.966Z,99801.89
2023-01-19T23:57:02.921Z,99794.09
2023-01-19T23:59:35.439Z,99793.23
